createdAt,value
2017-07-21T00:00:12.732Z,19.90
2017-07-21T00:02:42.956Z,19.80
2017-07-21T00:05:12.276Z,19.80
2017-07-21T00:07:41.612Z,19.80
2017-07-21T00:10:10.951Z,19.70
2017-07-21T00:12:40.302Z,19.70
2017-07-21T00:15:09.638Z,19.70
2017-07-21T00:17:39.810Z,19.70
2017-07-21T00:20:09.957Z,19.70
2017-07-21T00:22:39.309Z,19.70
2017-07-21T00:25:08.638Z,19.70
2017-07-21T00:27:37.982Z,19.70
2017-07-21T00:30:08.046Z,19.70
2017-07-21T00:32:37.387Z,19.70
2017-07-21T00:35:06.704Z,19.70
2017-07-21T00:37:36.796Z,19.60
2017-07-21T00:40:06.101Z,19.60
2017-07-21T00:42:35.430Z,19.60
2017-07-21T00:45:05.504Z,19.60
2017-07-21T00:47:34.835Z,19.60
2017-07-21T00:50:04.143Z,19.60
2017-07-21T00:52:34.232Z,19.50
2017-07-21T00:55:03.537Z,19.50
2017-07-21T00:57:32.864Z,19.50
2017-07-21T01:00:02.949Z,19.50
2017-07-21T01:02:33.040Z,19.50
2017-07-21T01:05:02.339Z,19.50
2017-07-21T01:07:31.667Z,19.50
2017-07-21T01:10:01.768Z,19.50
2017-07-21T01:12:31.105Z,19.50
2017-07-21T01:15:03.160Z,19.40
2017-07-21T01:17:32.532Z,19.40
2017-07-21T01:20:01.846Z,19.40
2017-07-21T01:22:31.141Z,19.40
2017-07-21T01:25:00.458Z,19.40
2017-07-21T01:27:29.780Z,19.40
2017-07-21T01:29:59.098Z,19.30
2017-07-21T01:32:28.396Z,19.30
2017-07-21T01:34:57.724Z,19.20
2017-07-21T01:37:27.025Z,19.10
2017-07-21T01:39:56.336Z,19.20
2017-07-21T01:42:25.637Z,19.20
2017-07-21T01:44:54.948Z,19.10
2017-07-21T01:47:24.252Z,19.10
2017-07-21T01:49:53.573Z,19.10
2017-07-21T01:52:23.639Z,19.10
2017-07-21T01:54:52.986Z,19.00
2017-07-21T01:57:22.284Z,19.00
2017-07-21T01:59:51.599Z,19.00
2017-07-21T02:02:21.667Z,19.00
2017-07-21T02:04:51.020Z,18.90
2017-07-21T02:07:20.330Z,19.00
2017-07-21T02:09:50.420Z,18.80
2017-07-21T02:12:19.728Z,18.80
2017-07-21T02:14:49.040Z,18.70
2017-07-21T02:17:19.960Z,18.60
2017-07-21T02:19:49.274Z,18.60
2017-07-21T02:22:18.587Z,18.60
2017-07-21T02:24:48.658Z,18.50
2017-07-21T02:27:17.988Z,18.40
2017-07-21T02:29:47.283Z,18.50
2017-07-21T02:32:16.612Z,18.60
2017-07-21T02:34:46.683Z,18.60
2017-07-21T02:37:16.012Z,18.60
2017-07-21T02:39:45.334Z,18.60
2017-07-21T02:42:14.664Z,18.60
2017-07-21T02:44:43.964Z,18.60
2017-07-21T02:47:13.297Z,18.60
2017-07-21T02:49:42.610Z,18.70
2017-07-21T02:52:11.932Z,18.70
2017-07-21T02:54:42.012Z,18.60
2017-07-21T02:57:11.332Z,18.70
2017-07-21T02:59:40.636Z,18.70
2017-07-21T03:02:10.001Z,18.60
2017-07-21T03:04:39.318Z,18.60
2017-07-21T03:07:08.664Z,18.70
2017-07-21T03:09:38.742Z,18.70
2017-07-21T03:12:08.259Z,18.70
2017-07-21T03:14:37.566Z,18.60
2017-07-21T03:17:08.208Z,18.60
2017-07-21T03:19:38.332Z,18.60
2017-07-21T03:22:07.676Z,18.60
2017-07-21T03:24:37.057Z,18.60
2017-07-21T03:27:07.140Z,18.60
2017-07-21T03:29:36.471Z,18.60
2017-07-21T03:32:05.786Z,18.60
2017-07-21T03:34:35.335Z,18.50
2017-07-21T03:37:04.654Z,18.50
2017-07-21T03:39:33.972Z,18.50
2017-07-21T03:42:04.043Z,18.50
2017-07-21T03:44:33.368Z,18.50
2017-07-21T03:47:02.690Z,18.50
2017-07-21T03:49:32.004Z,18.50
2017-07-21T03:52:02.088Z,18.40
2017-07-21T03:54:31.418Z,18.50
2017-07-21T03:57:01.500Z,18.50
2017-07-21T03:59:30.846Z,18.50
2017-07-21T04:02:01.019Z,18.40
2017-07-21T04:04:30.353Z,18.40
2017-07-21T04:06:59.908Z,18.40
2017-07-21T04:09:29.243Z,18.40
2017-07-21T04:11:58.559Z,18.40
2017-07-21T04:14:27.879Z,18.30
2017-07-21T04:16:57.966Z,18.30
2017-07-21T04:19:27.361Z,18.30
2017-07-21T04:21:56.663Z,18.30
2017-07-21T04:24:26.160Z,18.40
2017-07-21T04:26:55.551Z,18.40
2017-07-21T04:29:24.963Z,18.50
2017-07-21T04:31:54.331Z,18.50
2017-07-21T04:34:24.404Z,18.50
2017-07-21T04:36:53.708Z,18.50
2017-07-21T04:39:23.024Z,18.50
2017-07-21T04:41:52.453Z,18.50
2017-07-21T04:44:22.573Z,18.60
2017-07-21T04:46:52.659Z,18.70
2017-07-21T04:49:21.975Z,18.60
2017-07-21T04:51:51.295Z,18.70
2017-07-21T04:54:21.368Z,18.80
2017-07-21T04:56:50.688Z,18.80
2017-07-21T04:59:19.996Z,18.90
2017-07-21T05:01:49.324Z,19.00
2017-07-21T05:04:18.631Z,19.00
2017-07-21T05:06:47.965Z,19.00
2017-07-21T05:09:17.276Z,19.00
2017-07-21T05:11:46.598Z,19.10
2017-07-21T05:14:15.904Z,19.20
2017-07-21T05:16:45.224Z,19.40
2017-07-21T05:19:14.548Z,19.80
2017-07-21T05:21:43.868Z,20.20
2017-07-21T05:24:13.180Z,20.40
2017-07-21T05:26:42.527Z,20.40
2017-07-21T05:29:12.645Z,20.50
2017-07-21T05:31:42.746Z,20.60
2017-07-21T05:34:12.081Z,20.60
2017-07-21T05:36:42.177Z,21.10
2017-07-21T05:39:11.488Z,21.00
2017-07-21T05:41:41.606Z,21.90
2017-07-21T05:44:11.696Z,22.20
2017-07-21T05:46:41.373Z,22.10
2017-07-21T05:49:11.010Z,22.30
2017-07-21T05:51:40.348Z,22.30
2017-07-21T05:54:10.440Z,22.20
2017-07-21T05:56:39.821Z,22.20
2017-07-21T05:59:09.132Z,22.10
2017-07-21T06:01:38.437Z,22.00
2017-07-21T06:04:07.772Z,21.90
2017-07-21T06:06:37.084Z,22.00
2017-07-21T06:09:07.206Z,21.90
2017-07-21T06:11:37.298Z,22.10
2017-07-21T06:14:06.649Z,22.10
2017-07-21T06:16:35.976Z,22.50
2017-07-21T06:19:05.281Z,22.80
2017-07-21T06:21:34.615Z,22.90
2017-07-21T06:24:03.920Z,23.00
2017-07-21T06:26:34.047Z,22.90
2017-07-21T06:29:04.140Z,22.90
2017-07-21T06:31:34.475Z,22.90
2017-07-21T06:34:03.845Z,22.80
2017-07-21T06:36:33.185Z,22.70
2017-07-21T06:39:02.501Z,22.60
2017-07-21T06:41:32.614Z,22.50
2017-07-21T06:44:02.688Z,22.40
2017-07-21T06:46:32.020Z,22.40
2017-07-21T06:49:01.349Z,22.40
2017-07-21T06:51:31.420Z,22.30
2017-07-21T06:54:00.754Z,22.20
2017-07-21T06:56:30.075Z,22.30
2017-07-21T06:59:04.648Z,22.40
2017-07-21T07:01:33.974Z,22.40
2017-07-21T07:04:03.333Z,22.30
2017-07-21T07:06:32.653Z,22.30
2017-07-21T07:09:02.009Z,22.40
2017-07-21T07:11:31.339Z,22.50
2017-07-21T07:14:00.648Z,22.50
2017-07-21T07:16:30.056Z,22.60
2017-07-21T07:18:59.387Z,22.50
2017-07-21T07:21:28.711Z,22.50
2017-07-21T07:23:58.820Z,22.70
2017-07-21T07:26:28.148Z,22.60
2017-07-21T07:28:57.457Z,22.70
2017-07-21T07:31:26.816Z,23.00
2017-07-21T07:33:56.124Z,23.10
2017-07-21T07:36:26.231Z,23.30
2017-07-21T07:38:55.541Z,23.30
2017-07-21T07:41:25.622Z,23.50
2017-07-21T07:43:55.184Z,23.50
2017-07-21T07:46:25.258Z,23.70
2017-07-21T07:48:54.842Z,23.60
2017-07-21T07:51:24.149Z,23.40
2017-07-21T07:53:53.538Z,23.30
2017-07-21T07:56:23.004Z,23.10
2017-07-21T07:58:53.123Z,23.20
2017-07-21T08:01:22.436Z,23.10
2017-07-21T08:03:52.091Z,23.20
2017-07-21T08:06:21.396Z,23.40
2017-07-21T08:08:51.546Z,23.50
2017-07-21T08:11:20.877Z,23.40
2017-07-21T08:13:50.177Z,23.60
2017-07-21T08:16:19.499Z,23.70
2017-07-21T08:18:48.830Z,23.70
2017-07-21T08:21:19.017Z,23.80
2017-07-21T08:23:48.344Z,23.70
2017-07-21T08:26:18.438Z,23.90
2017-07-21T08:28:48.049Z,23.80
2017-07-21T08:31:17.484Z,23.90
2017-07-21T08:33:46.815Z,23.90
2017-07-21T08:36:16.161Z,23.90
2017-07-21T08:38:45.602Z,23.90
2017-07-21T08:41:14.944Z,24.00
2017-07-21T08:43:44.245Z,24.20
2017-07-21T08:46:13.555Z,24.20
2017-07-21T08:48:42.886Z,24.30
2017-07-21T08:51:13.489Z,24.50
2017-07-21T08:53:42.814Z,24.50
2017-07-21T08:56:12.134Z,24.60
2017-07-21T08:58:42.089Z,24.80
2017-07-21T09:01:11.395Z,24.80
2017-07-21T09:03:40.733Z,24.70
2017-07-21T09:06:11.609Z,24.70
2017-07-21T09:08:42.515Z,24.60
2017-07-21T09:11:12.217Z,24.70
2017-07-21T09:13:42.886Z,24.90
2017-07-21T09:16:12.194Z,25.10
2017-07-21T09:18:41.516Z,25.20
2017-07-21T09:21:10.862Z,25.20
2017-07-21T09:23:41.244Z,25.20
2017-07-21T09:26:10.846Z,25.30
2017-07-21T09:28:40.188Z,25.30
2017-07-21T09:31:09.493Z,25.40
2017-07-21T09:33:38.829Z,25.40
2017-07-21T09:36:08.160Z,25.40
2017-07-21T09:38:37.472Z,25.40
2017-07-21T09:41:06.804Z,25.40
2017-07-21T09:43:36.883Z,25.60
2017-07-21T09:46:06.233Z,25.60
2017-07-21T09:48:43.503Z,25.60
2017-07-21T09:51:13.396Z,25.60
2017-07-21T09:53:42.717Z,25.60
2017-07-21T09:56:12.085Z,25.60
2017-07-21T09:58:42.912Z,25.70
2017-07-21T10:01:13.185Z,25.80
2017-07-21T10:03:42.496Z,25.90
2017-07-21T10:06:12.789Z,25.80
2017-07-21T10:08:42.129Z,25.70
2017-07-21T10:11:11.443Z,25.80
2017-07-21T10:13:40.768Z,25.90
2017-07-21T10:16:10.076Z,26.00
2017-07-21T10:18:39.541Z,26.00
2017-07-21T10:21:10.636Z,26.10
2017-07-21T10:23:41.037Z,26.10
2017-07-21T10:26:10.412Z,26.20
2017-07-21T10:28:40.643Z,26.10
2017-07-21T10:31:10.711Z,26.20
2017-07-21T10:33:40.085Z,26.20
2017-07-21T10:36:09.397Z,26.30
2017-07-21T10:38:38.731Z,26.50
2017-07-21T10:41:08.055Z,26.60
2017-07-21T10:43:38.389Z,26.70
2017-07-21T10:46:07.711Z,26.70
2017-07-21T10:48:37.144Z,26.80
2017-07-21T10:51:07.584Z,26.90
2017-07-21T10:53:43.341Z,26.90
2017-07-21T10:56:12.701Z,27.10
2017-07-21T10:58:42.017Z,27.20
2017-07-21T11:01:11.363Z,27.40
2017-07-21T11:03:40.730Z,27.50
2017-07-21T11:06:10.088Z,27.50
2017-07-21T11:08:39.404Z,27.50
2017-07-21T11:11:09.333Z,27.50
2017-07-21T11:13:39.152Z,27.50
2017-07-21T11:16:08.511Z,27.60
2017-07-21T11:18:38.845Z,27.50
2017-07-21T11:21:08.201Z,27.40
2017-07-21T11:23:38.756Z,27.40
2017-07-21T11:26:08.064Z,27.40
2017-07-21T11:28:38.400Z,27.50
2017-07-21T11:31:07.719Z,27.50
2017-07-21T11:33:45.713Z,27.70
2017-07-21T11:36:15.050Z,27.60
2017-07-21T11:38:44.352Z,27.70
2017-07-21T11:41:13.771Z,27.80
2017-07-21T11:43:43.097Z,27.90
2017-07-21T11:46:12.441Z,27.90
2017-07-21T11:48:41.990Z,28.00
2017-07-21T11:51:11.320Z,28.10
2017-07-21T11:53:40.624Z,28.20
2017-07-21T11:56:10.719Z,28.30
2017-07-21T11:58:40.033Z,28.30
2017-07-21T12:01:09.370Z,28.30
2017-07-21T12:03:38.684Z,28.40
2017-07-21T12:06:08.083Z,28.50
2017-07-21T12:08:37.400Z,28.60
2017-07-21T12:11:06.792Z,28.70
2017-07-21T12:13:36.238Z,28.60
2017-07-21T12:16:05.557Z,28.40
2017-07-21T12:18:34.936Z,28.50
2017-07-21T12:21:04.273Z,28.60
2017-07-21T12:23:33.624Z,28.60
2017-07-21T12:26:09.664Z,28.80
2017-07-21T12:28:40.165Z,29.00
2017-07-21T12:31:09.495Z,28.90
2017-07-21T12:33:39.584Z,28.90
2017-07-21T12:36:08.966Z,28.80
2017-07-21T12:38:38.397Z,29.00
2017-07-21T12:41:07.788Z,29.10
2017-07-21T12:43:37.104Z,29.00
2017-07-21T12:46:07.451Z,29.10
2017-07-21T12:48:37.695Z,29.10
2017-07-21T12:51:07.876Z,29.10
2017-07-21T12:53:38.611Z,29.00
2017-07-21T12:56:07.936Z,28.80
2017-07-21T12:58:37.252Z,28.60
2017-07-21T13:01:07.294Z,28.50
2017-07-21T13:03:36.606Z,28.50
2017-07-21T13:06:05.961Z,28.30
2017-07-21T13:08:35.267Z,28.00
2017-07-21T13:11:04.648Z,28.00
2017-07-21T13:13:33.974Z,27.90
2017-07-21T13:16:03.288Z,28.00
2017-07-21T13:18:32.620Z,28.00
2017-07-21T13:21:02.013Z,28.00
2017-07-21T13:23:31.325Z,28.10
2017-07-21T13:26:01.389Z,28.10
2017-07-21T13:28:30.729Z,28.00
2017-07-21T13:31:00.862Z,28.00
2017-07-21T13:33:30.942Z,28.00
2017-07-21T13:36:00.244Z,28.00
2017-07-21T13:38:29.632Z,28.00
2017-07-21T13:40:58.932Z,28.10
2017-07-21T13:43:28.326Z,28.10
2017-07-21T13:45:57.647Z,28.20
2017-07-21T13:48:26.954Z,28.10
2017-07-21T13:50:56.310Z,28.20
2017-07-21T13:53:26.404Z,28.30
2017-07-21T13:55:55.781Z,28.50
2017-07-21T13:58:25.130Z,28.60
2017-07-21T14:00:54.481Z,28.70
2017-07-21T14:03:24.568Z,28.50
2017-07-21T14:05:53.908Z,28.60
2017-07-21T14:08:23.238Z,28.50
2017-07-21T14:10:52.579Z,28.60
2017-07-21T14:13:21.914Z,28.50
2017-07-21T14:15:51.212Z,28.50
2017-07-21T14:18:20.599Z,28.50
2017-07-21T14:20:50.701Z,28.50
2017-07-21T14:23:20.037Z,28.50
2017-07-21T14:25:49.347Z,28.50
2017-07-21T14:28:18.788Z,28.50
2017-07-21T14:30:48.111Z,28.50
2017-07-21T14:33:17.479Z,28.60
2017-07-21T14:35:46.828Z,28.70
2017-07-21T14:38:16.146Z,28.70
2017-07-21T14:40:46.570Z,28.90
2017-07-21T14:43:15.971Z,28.90
2017-07-21T14:45:46.060Z,28.90
2017-07-21T14:48:15.381Z,28.90
2017-07-21T14:50:44.704Z,28.80
2017-07-21T14:53:14.028Z,28.70
2017-07-21T14:55:43.360Z,28.80
2017-07-21T14:58:12.837Z,28.80
2017-07-21T15:00:42.183Z,28.80
2017-07-21T15:03:11.496Z,28.90
2017-07-21T15:05:40.852Z,28.80
2017-07-21T15:08:10.157Z,28.80
2017-07-21T15:10:39.471Z,28.70
2017-07-21T15:13:08.820Z,28.70
2017-07-21T15:15:38.960Z,28.70
2017-07-21T15:18:08.309Z,28.70
2017-07-21T15:20:37.678Z,28.70
2017-07-21T15:23:07.256Z,28.80
2017-07-21T15:25:37.463Z,28.80
2017-07-21T15:28:06.801Z,28.80
2017-07-21T15:30:36.192Z,29.00
2017-07-21T15:33:05.528Z,29.10
2017-07-21T15:35:34.832Z,29.10
2017-07-21T15:38:04.168Z,29.10
2017-07-21T15:40:33.525Z,29.20
2017-07-21T15:43:02.832Z,29.20
2017-07-21T15:45:32.179Z,29.10
2017-07-21T15:48:01.505Z,29.10
2017-07-21T15:50:31.506Z,29.10
2017-07-21T15:53:03.306Z,29.20
2017-07-21T15:55:34.384Z,29.30
2017-07-21T15:58:03.773Z,29.20
2017-07-21T16:00:33.105Z,29.30
2017-07-21T16:03:02.426Z,29.30
2017-07-21T16:05:33.184Z,29.40
2017-07-21T16:08:19.405Z,29.40
2017-07-21T16:10:53.746Z,29.40
2017-07-21T16:13:24.214Z,29.50
2017-07-21T16:15:53.556Z,29.50
2017-07-21T16:18:22.859Z,29.50
2017-07-21T16:20:52.236Z,29.40
2017-07-21T16:23:21.554Z,29.30
2017-07-21T16:25:50.860Z,29.30
2017-07-21T16:28:20.180Z,29.30
2017-07-21T16:30:49.538Z,29.40
2017-07-21T16:33:18.864Z,29.30
2017-07-21T16:35:48.178Z,29.40
2017-07-21T16:38:17.505Z,29.40
2017-07-21T16:40:46.820Z,29.50
2017-07-21T16:43:16.192Z,29.50
2017-07-21T16:45:45.622Z,29.50
2017-07-21T16:48:14.965Z,29.40
2017-07-21T16:50:44.274Z,29.40
2017-07-21T16:53:13.621Z,29.40
2017-07-21T16:55:43.944Z,29.40
2017-07-21T16:58:13.320Z,29.30
2017-07-21T17:00:42.693Z,29.20
2017-07-21T17:03:12.080Z,29.20
2017-07-21T17:05:42.196Z,29.20
2017-07-21T17:08:12.321Z,29.20
2017-07-21T17:10:42.812Z,29.20
2017-07-21T17:13:12.145Z,29.20
2017-07-21T17:15:41.568Z,29.10
2017-07-21T17:18:10.885Z,29.20
2017-07-21T17:20:40.245Z,29.30
2017-07-21T17:23:09.614Z,29.20
2017-07-21T17:25:42.533Z,29.20
2017-07-21T17:28:11.949Z,29.10
2017-07-21T17:30:41.393Z,29.10
2017-07-21T17:33:15.602Z,29.10
2017-07-21T17:35:45.013Z,29.10
2017-07-21T17:38:14.512Z,29.10
2017-07-21T17:40:43.980Z,29.00
2017-07-21T17:43:15.165Z,28.90
2017-07-21T17:45:44.655Z,28.80
2017-07-21T17:48:14.042Z,28.60
2017-07-21T17:50:43.497Z,28.60
2017-07-21T17:53:14.845Z,28.50
2017-07-21T17:55:44.420Z,28.50
2017-07-21T17:58:16.467Z,28.40
2017-07-21T18:00:45.838Z,28.40
2017-07-21T18:03:30.089Z,28.30
2017-07-21T18:06:00.178Z,28.30
2017-07-21T18:08:29.624Z,28.20
2017-07-21T18:11:01.078Z,28.20
2017-07-21T18:13:31.230Z,28.20
2017-07-21T18:16:00.686Z,28.20
2017-07-21T18:18:31.923Z,28.20
2017-07-21T18:21:01.244Z,28.20
2017-07-21T18:23:31.391Z,27.90
2017-07-21T18:26:00.740Z,27.90
2017-07-21T18:28:30.229Z,27.90
2017-07-21T18:30:59.809Z,27.80
2017-07-21T18:33:29.124Z,27.80
2017-07-21T18:35:58.468Z,27.70
2017-07-21T18:38:27.820Z,27.70
2017-07-21T18:40:57.174Z,27.60
2017-07-21T18:43:26.484Z,27.70
2017-07-21T18:45:56.594Z,27.60
2017-07-21T18:48:26.684Z,27.50
2017-07-21T18:50:56.964Z,27.50
2017-07-21T18:53:26.265Z,27.40
2017-07-21T18:55:55.610Z,27.40
2017-07-21T18:58:24.941Z,27.30
2017-07-21T19:00:54.882Z,27.30
2017-07-21T19:03:24.749Z,27.20
2017-07-21T19:05:54.076Z,27.10
2017-07-21T19:08:23.473Z,27.00
2017-07-21T19:10:55.118Z,27.00
2017-07-21T19:13:24.440Z,26.90
2017-07-21T19:15:54.552Z,26.90
2017-07-21T19:18:52.102Z,26.80
2017-07-21T19:24:01.499Z,26.80
2017-07-21T19:26:30.856Z,26.70
2017-07-21T19:29:00.190Z,26.40
2017-07-21T19:31:32.173Z,25.10
2017-07-21T19:34:01.646Z,25.10
2017-07-21T19:36:30.969Z,24.60
2017-07-21T19:39:00.396Z,24.30
2017-07-21T19:41:29.764Z,24.00
2017-07-21T19:43:59.100Z,23.70
2017-07-21T19:46:28.412Z,23.30
2017-07-21T19:48:57.812Z,23.10
2017-07-21T19:51:27.113Z,22.90
2017-07-21T19:53:56.449Z,22.90
2017-07-21T19:56:25.765Z,22.80
2017-07-21T19:58:55.116Z,22.90
2017-07-21T20:01:24.460Z,22.90
2017-07-21T20:03:54.592Z,23.00
2017-07-21T20:06:23.933Z,23.00
2017-07-21T20:08:53.244Z,23.00
2017-07-21T20:11:22.589Z,23.00
2017-07-21T20:13:51.978Z,23.10
2017-07-21T20:16:21.346Z,23.00
2017-07-21T20:18:50.683Z,23.00
2017-07-21T20:21:20.011Z,23.00
2017-07-21T20:23:49.344Z,22.90
2017-07-21T20:29:01.652Z,22.90
2017-07-21T20:31:31.745Z,22.80
2017-07-21T20:34:01.153Z,22.80
2017-07-21T20:36:30.544Z,22.80
2017-07-21T20:38:59.874Z,22.80
2017-07-21T20:41:30.161Z,22.90
2017-07-21T20:43:59.647Z,22.80
2017-07-21T20:46:28.994Z,22.80
2017-07-21T20:48:58.322Z,22.80
2017-07-21T20:51:27.698Z,22.60
2017-07-21T20:53:57.021Z,22.40
2017-07-21T20:56:27.119Z,22.50
2017-07-21T20:58:56.504Z,22.40
2017-07-21T21:01:25.829Z,22.30
2017-07-21T21:03:55.136Z,22.20
2017-07-21T21:06:25.232Z,21.70
2017-07-21T21:08:54.549Z,21.60
2017-07-21T21:11:23.882Z,21.40
2017-07-21T21:13:53.188Z,21.30
2017-07-21T21:16:22.750Z,21.00
2017-07-21T21:18:52.056Z,20.90
2017-07-21T21:21:21.382Z,20.90
2017-07-21T21:23:51.475Z,20.60
2017-07-21T21:26:20.780Z,20.60
2017-07-21T21:28:50.113Z,20.60
2017-07-21T21:31:19.421Z,20.50
2017-07-21T21:33:56.192Z,20.40
2017-07-21T21:36:25.493Z,20.30
2017-07-21T21:38:54.825Z,20.30
2017-07-21T21:41:24.136Z,20.30
2017-07-21T21:43:53.560Z,20.30
2017-07-21T21:46:24.276Z,20.40
2017-07-21T21:48:53.631Z,20.40
2017-07-21T21:51:23.807Z,20.50
2017-07-21T21:53:53.280Z,20.40
2017-07-21T21:56:22.704Z,20.50
2017-07-21T21:58:52.002Z,20.50
2017-07-21T22:01:21.319Z,20.60
2017-07-21T22:03:51.557Z,20.60
2017-07-21T22:06:20.877Z,20.70
2017-07-21T22:08:50.962Z,20.50
2017-07-21T22:11:20.308Z,20.40
2017-07-21T22:13:49.650Z,20.40
2017-07-21T22:16:19.852Z,20.30
2017-07-21T22:18:49.144Z,20.40
2017-07-21T22:21:18.465Z,20.40
2017-07-21T22:23:47.957Z,20.40
2017-07-21T22:26:17.303Z,20.40
2017-07-21T22:28:46.610Z,20.30
2017-07-21T22:31:16.148Z,20.10
2017-07-21T22:33:46.228Z,19.80
2017-07-21T22:36:15.540Z,19.80
2017-07-21T22:38:44.868Z,19.70
2017-07-21T22:41:14.177Z,19.70
2017-07-21T22:43:44.271Z,19.50
2017-07-21T22:46:13.575Z,19.50
2017-07-21T22:48:42.905Z,19.50
2017-07-21T22:51:12.224Z,19.40
2017-07-21T22:53:41.578Z,19.40
2017-07-21T22:56:10.913Z,19.40
2017-07-21T22:58:40.229Z,19.50
2017-07-21T23:01:09.551Z,19.60
2017-07-21T23:03:38.853Z,19.60
2017-07-21T23:06:08.184Z,19.50
2017-07-21T23:08:37.509Z,19.60
2017-07-21T23:11:07.684Z,19.60
2017-07-21T23:13:36.985Z,19.60
2017-07-21T23:16:06.323Z,19.70
2017-07-21T23:18:35.738Z,19.70
2017-07-21T23:21:05.829Z,19.70
2017-07-21T23:23:35.155Z,19.70
2017-07-21T23:26:05.224Z,19.80
2017-07-21T23:28:34.562Z,19.70
2017-07-21T23:31:03.880Z,19.80
2017-07-21T23:33:33.213Z,19.80
2017-07-21T23:36:02.525Z,19.80
2017-07-21T23:38:33.521Z,19.90
2017-07-21T23:41:03.851Z,20.00
2017-07-21T23:43:33.949Z,20.00
2017-07-21T23:46:03.300Z,20.00
2017-07-21T23:48:33.432Z,20.00
2017-07-21T23:51:02.800Z,20.00
2017-07-21T23:53:32.248Z,20.00
2017-07-21T23:56:01.620Z,19.90
2017-07-21T23:58:31.058Z,20.00
